Time;durP1;ratioP1;P1;durP2;ratioP2;P2;SDS_P1;SDS_P2;PMS_P1;PMS_P2;Temp;Humidity;BMP_temperature;BMP_pressure;BME280_temperature;BME280_humidity;BME280_pressure;Samples;Min_cycle;Max_cycle;Signal;HPM_P1;HPM_P2
2022/02/19 00:01:09;;;;;;;16.35;2.00;;;;;;;5.09;59.32;100108.25;5038706;28;20044;-65
2022/02/19 00:03:35;;;;;;;14.35;2.38;;;;;;;5.15;57.59;100086.69;5091956;28;20032;-65
2022/02/19 00:06:02;;;;;;;11.15;2.30;;;;;;;5.17;57.49;100090.00;5092946;28;20107;-65
2022/02/19 00:08:29;;;;;;;13.77;2.83;;;;;;;5.24;57.66;100094.72;5091638;28;20040;-65
2022/02/19 00:10:56;;;;;;;6.63;2.55;;;;;;;5.29;57.02;100126.72;5091960;28;20090;-65
2022/02/19 00:13:24;;;;;;;24.48;2.00;;;;;;;5.25;56.95;100097.22;5091710;28;20400;-65
2022/02/19 00:15:52;;;;;;;9.88;2.10;;;;;;;5.29;57.41;100111.75;5091672;28;20036;-65
2022/02/19 00:18:19;;;;;;;12.82;2.55;;;;;;;5.33;57.30;100107.91;5091955;28;20044;-65
2022/02/19 00:20:45;;;;;;;19.85;3.65;;;;;;;5.32;58.30;100105.41;5091852;28;20492;-65
2022/02/19 00:23:13;;;;;;;9.55;2.28;;;;;;;5.37;57.91;100124.25;5091965;28;20093;-65
2022/02/19 00:25:39;;;;;;;14.32;2.33;;;;;;;5.39;57.52;100136.28;5075430;28;20561;-65
2022/02/19 00:28:06;;;;;;;13.68;2.63;;;;;;;5.35;58.05;100140.16;5092006;28;20044;-65
2022/02/19 00:30:35;;;;;;;10.65;2.03;;;;;;;5.34;58.09;100125.34;5092665;28;20131;-65
2022/02/19 00:33:02;;;;;;;14.63;2.25;;;;;;;5.28;58.75;100128.50;5043021;28;20040;-65
2022/02/19 00:35:28;;;;;;;14.20;2.40;;;;;;;5.30;57.71;100125.75;5089257;28;20044;-65
2022/02/19 00:37:55;;;;;;;10.05;2.20;;;;;;;5.28;57.94;100146.94;5055393;28;20047;-65
2022/02/19 00:40:22;;;;;;;15.43;2.50;;;;;;;5.30;57.96;100152.88;5074281;28;20082;-65
2022/02/19 00:42:49;;;;;;;16.63;2.10;;;;;;;5.34;58.48;100142.91;5072818;28;20420;-65
2022/02/19 00:45:16;;;;;;;15.50;2.60;;;;;;;5.38;59.73;100150.44;5071513;28;20044;-65
2022/02/19 00:47:43;;;;;;;14.23;2.38;;;;;;;5.33;60.63;100150.00;5087593;28;20190;-65
2022/02/19 00:50:10;;;;;;;13.75;2.58;;;;;;;5.36;61.72;100157.59;5077238;28;20110;-65
2022/02/19 00:52:38;;;;;;;15.32;2.30;;;;;;;5.43;62.86;100157.06;5075343;28;20051;-65
2022/02/19 00:55:06;;;;;;;23.05;4.00;;;;;;;5.29;63.92;100164.34;5092548;28;20036;-66
2022/02/19 00:57:33;;;;;;;14.65;2.17;;;;;;;5.26;63.90;100180.41;5092962;28;20492;-65
2022/02/19 01:00:00;;;;;;;15.93;2.50;;;;;;;5.31;64.44;100172.13;5091501;28;20454;-66
2022/02/19 01:02:28;;;;;;;19.52;2.05;;;;;;;5.30;64.32;100181.81;5091593;28;20040;-65
2022/02/19 01:05:01;;;;;;;23.25;2.95;;;;;;;5.28;64.33;100196.91;5092545;28;20451;-66
2022/02/19 01:07:27;;;;;;;12.77;1.70;;;;;;;5.24;63.80;100189.38;5093043;28;20097;-65
2022/02/19 01:09:54;;;;;;;12.70;2.33;;;;;;;5.28;63.89;100207.41;5074960;28;20055;-65
2022/02/19 01:12:21;;;;;;;17.65;2.45;;;;;;;5.28;63.92;100206.59;5091713;28;20040;-65
2022/02/19 01:14:48;;;;;;;17.77;3.97;;;;;;;5.19;63.41;100208.22;5055098;28;20140;-66
2022/02/19 01:17:15;;;;;;;20.75;2.72;;;;;;;5.26;63.64;100203.25;5072280;28;20041;-65
2022/02/19 01:19:43;;;;;;;20.23;2.42;;;;;;;5.27;62.21;100213.63;5077839;28;20599;-66
2022/02/19 01:22:10;;;;;;;16.33;2.42;;;;;;;5.23;62.41;100222.75;5092297;28;20123;-66
2022/02/19 01:24:36;;;;;;;22.20;3.92;;;;;;;5.23;61.82;100209.59;5091496;28;20059;-65
2022/02/19 01:27:04;;;;;;;14.77;2.40;;;;;;;5.18;62.69;100207.38;5091713;28;20527;-65
2022/02/19 01:29:35;;;;;;;15.10;2.70;;;;;;;5.29;62.21;100226.66;5091371;28;20051;-66
2022/02/19 01:32:02;;;;;;;19.40;2.55;;;;;;;5.23;62.78;100211.41;5074674;28;20043;-65
2022/02/19 01:34:29;;;;;;;17.63;3.00;;;;;;;5.18;61.83;100225.78;5071431;28;20052;-65
2022/02/19 01:36:56;;;;;;;16.05;2.75;;;;;;;5.23;61.87;100220.13;5071552;28;20041;-65
2022/02/19 01:39:24;;;;;;;16.92;2.60;;;;;;;5.16;60.05;100218.97;5075410;28;20450;-65
2022/02/19 01:41:54;;;;;;;13.70;2.58;;;;;;;5.18;59.98;100222.31;5058626;28;20447;-65
2022/02/19 01:44:20;;;;;;;19.13;2.45;;;;;;;5.22;58.56;100210.59;5075817;28;20055;-65
2022/02/19 01:46:48;;;;;;;13.32;2.13;;;;;;;5.23;56.94;100214.88;5080605;28;20050;-65
2022/02/19 01:49:15;;;;;;;17.05;2.28;;;;;;;5.37;55.25;100227.66;5082556;28;20048;-65
2022/02/19 01:51:42;;;;;;;13.30;2.72;;;;;;;5.33;56.26;100241.19;5075509;28;20052;-65
2022/02/19 01:54:11;;;;;;;14.20;2.47;;;;;;;5.30;57.66;100228.31;5074336;28;20040;-65
2022/02/19 01:56:59;;;;;;;15.82;2.45;;;;;;;5.26;57.78;100234.81;5074743;28;20045;-65
2022/02/19 01:59:46;;;;;;;21.30;2.60;;;;;;;5.21;58.37;100258.88;5074512;28;20036;-65
2022/02/19 02:02:33;;;;;;;7.90;1.65;;;;;;;5.12;58.35;100257.84;5080480;28;20036;-64
2022/02/19 02:05:20;;;;;;;11.90;2.35;;;;;;;5.19;58.11;100268.69;5089659;28;20044;-65
2022/02/19 02:07:47;;;;;;;14.30;2.38;;;;;;;5.16;57.75;100282.09;5057458;28;20040;-65
2022/02/19 02:10:14;;;;;;;11.32;2.08;;;;;;;5.20;56.64;100286.13;5092741;28;20044;-65
2022/02/19 02:12:42;;;;;;;7.55;1.88;;;;;;;5.16;55.43;100298.69;5095117;28;20123;-65
2022/02/19 02:15:30;;;;;;;8.68;2.10;;;;;;;5.17;54.68;100284.59;5074185;28;20044;-64
2022/02/19 02:18:03;;;;;;;11.27;1.92;;;;;;;5.21;54.41;100285.16;5074369;28;20519;-65
2022/02/19 02:20:31;;;;;;;12.38;1.83;;;;;;;5.19;54.44;100306.34;5091134;28;20044;-65
2022/02/19 02:22:59;;;;;;;18.80;1.80;;;;;;;5.16;54.66;100300.50;5095293;28;20051;-65
2022/02/19 02:25:28;;;;;;;10.32;2.22;;;;;;;5.11;53.77;100315.81;5077359;28;20052;-65
2022/02/19 02:27:57;;;;;;;9.75;1.77;;;;;;;5.12;53.71;100322.75;5093972;28;20500;-65
2022/02/19 02:30:27;;;;;;;13.15;1.73;;;;;;;5.13;53.85;100313.91;5094978;28;20555;-65
2022/02/19 02:33:07;;;;;;;19.35;2.58;;;;;;;5.21;53.99;100327.25;5061758;28;20044;-65
2022/02/19 02:35:34;;;;;;;12.85;2.33;;;;;;;5.14;54.47;100324.28;5056797;28;20300;-65
2022/02/19 02:38:02;;;;;;;14.20;2.45;;;;;;;5.09;54.33;100329.09;5037471;28;20073;-64
2022/02/19 02:40:30;;;;;;;10.00;2.00;;;;;;;5.11;54.29;100328.97;5037159;28;20041;-66
2022/02/19 02:42:59;;;;;;;10.05;1.77;;;;;;;5.10;54.75;100337.84;5054708;28;20366;-65
2022/02/19 02:45:26;;;;;;;10.50;2.10;;;;;;;5.09;55.02;100333.53;5020992;28;20041;-65
2022/02/19 02:48:13;;;;;;;7.70;1.70;;;;;;;5.08;55.51;100343.22;5052328;28;20102;-65
2022/02/19 02:50:39;;;;;;;19.52;1.92;;;;;;;5.09;54.88;100352.75;5074443;28;20045;-65
2022/02/19 02:53:20;;;;;;;16.75;2.30;;;;;;;5.04;55.36;100340.97;5074474;28;20082;-65
2022/02/19 02:55:47;;;;;;;13.02;1.90;;;;;;;5.16;55.27;100360.97;5074707;28;20040;-65
2022/02/19 02:58:14;;;;;;;12.60;2.42;;;;;;;5.12;55.74;100367.47;5057002;28;20408;-65
2022/02/19 03:00:40;;;;;;;7.18;1.90;;;;;;;5.16;55.23;100379.38;5056638;28;20036;-65
2022/02/19 03:03:07;;;;;;;10.82;1.88;;;;;;;5.07;55.14;100356.50;5040301;28;20227;-64
2022/02/19 03:05:34;;;;;;;18.65;2.60;;;;;;;5.10;55.04;100393.88;5039858;28;20036;-65
2022/02/19 03:08:01;;;;;;;11.52;1.80;;;;;;;5.06;55.77;100375.84;5040074;28;20080;-65
2022/02/19 03:10:30;;;;;;;10.07;1.65;;;;;;;5.08;56.05;100397.63;5074225;28;20045;-65
2022/02/19 03:12:57;;;;;;;6.97;1.83;;;;;;;5.08;55.81;100402.88;5074064;28;20089;-65
2022/02/19 03:15:27;;;;;;;10.13;1.92;;;;;;;5.10;55.76;100401.78;5074175;28;20041;-65
2022/02/19 03:17:54;;;;;;;14.85;2.08;;;;;;;5.07;55.93;100395.94;5074131;28;20047;-64
2022/02/19 03:20:22;;;;;;;13.70;1.90;;;;;;;5.05;56.32;100426.78;5073231;28;20040;-64
2022/02/19 03:22:49;;;;;;;12.32;2.13;;;;;;;5.11;56.05;100392.94;5047861;28;20040;-65
2022/02/19 03:25:19;;;;;;;9.05;2.03;;;;;;;5.00;56.47;100417.47;5055156;28;20052;-65
2022/02/19 03:27:47;;;;;;;5.15;1.45;;;;;;;4.98;56.68;100415.91;5056175;28;20507;-65
2022/02/19 03:30:20;;;;;;;11.65;1.80;;;;;;;4.95;56.46;100424.91;5050899;28;20081;-64
2022/02/19 03:32:48;;;;;;;16.98;2.30;;;;;;;4.99;55.80;100428.94;5092713;28;20042;-65
2022/02/19 03:35:18;;;;;;;5.95;1.65;;;;;;;4.95;56.20;100458.25;5092535;28;20048;-66
2022/02/19 03:37:45;;;;;;;13.85;2.10;;;;;;;4.88;56.62;100465.78;5093990;28;20069;-65
2022/02/19 03:40:18;;;;;;;13.15;2.20;;;;;;;4.90;57.07;100465.69;5092825;28;20491;-65
2022/02/19 03:42:46;;;;;;;7.38;1.63;;;;;;;4.95;57.06;100464.34;5076348;28;20089;-64
2022/02/19 03:45:13;;;;;;;15.18;1.80;;;;;;;4.88;57.32;100480.75;5093479;28;20040;-65
2022/02/19 03:47:46;;;;;;;5.57;1.38;;;;;;;4.86;57.58;100472.13;5092829;28;20044;-65
2022/02/19 03:50:17;;;;;;;12.70;2.47;;;;;;;4.85;57.09;100489.69;5092295;28;20504;-65
2022/02/19 03:52:46;;;;;;;12.50;2.03;;;;;;;4.92;57.38;100496.13;5093399;28;20048;-65
2022/02/19 03:55:29;;;;;;;10.10;1.90;;;;;;;4.91;56.56;100496.25;5078280;28;20396;-65
2022/02/19 03:57:58;;;;;;;9.80;1.98;;;;;;;4.85;57.50;100510.72;5092951;28;20044;-65
2022/02/19 04:00:26;;;;;;;8.70;1.80;;;;;;;4.88;57.58;100521.00;5091700;28;20044;-65
2022/02/19 04:02:54;;;;;;;12.85;1.85;;;;;;;4.90;57.89;100502.47;5092489;28;20047;-65
2022/02/19 04:05:24;;;;;;;14.65;2.25;;;;;;;4.93;57.96;100513.56;5093275;28;20056;-65
2022/02/19 04:07:52;;;;;;;11.88;1.80;;;;;;;4.86;58.08;100509.78;5075435;28;20044;-65
2022/02/19 04:10:22;;;;;;;11.10;1.88;;;;;;;4.74;58.23;100518.63;5092221;28;20050;-65
2022/02/19 04:12:49;;;;;;;12.32;2.22;;;;;;;4.76;58.38;100528.03;5092338;28;20062;-65
2022/02/19 04:15:31;;;;;;;;;;;;;;;4.71;58.49;100532.84;5074657;28;20083;-65
2022/02/19 04:17:59;;;;;;;12.90;1.95;;;;;;;4.67;58.95;100536.66;5055420;28;19955;-64
2022/02/19 04:20:27;;;;;;;11.93;2.17;;;;;;;4.68;58.69;100542.78;5046646;28;20052;-65
2022/02/19 04:22:56;;;;;;;13.63;1.88;;;;;;;4.64;59.28;100565.81;5072928;28;20427;-64
2022/02/19 04:25:25;;;;;;;10.07;2.60;;;;;;;4.57;59.70;100559.38;5060087;28;20143;-65
2022/02/19 04:27:55;;;;;;;8.80;1.83;;;;;;;4.66;59.63;100563.06;5072139;28;20041;-65
2022/02/19 04:30:23;;;;;;;12.45;2.50;;;;;;;4.63;59.88;100581.69;5092387;28;20052;-64
2022/02/19 04:32:57;;;;;;;10.07;1.90;;;;;;;4.67;60.12;100586.59;5092895;28;20514;-64
2022/02/19 04:35:26;;;;;;;16.63;2.03;;;;;;;4.70;60.49;100582.91;5091718;28;20089;-65
2022/02/19 04:37:54;;;;;;;9.60;1.83;;;;;;;4.67;60.23;100591.84;5075222;28;20518;-68
2022/02/19 04:40:23;;;;;;;6.93;1.80;;;;;;;4.54;60.39;100591.97;5093282;28;20495;-65
2022/02/19 04:42:51;;;;;;;14.85;2.20;;;;;;;4.60;60.62;100607.25;5091962;28;20040;-65
2022/02/19 04:45:23;;;;;;;9.38;1.92;;;;;;;4.53;60.72;100608.69;5091936;28;20127;-65
2022/02/19 04:47:53;;;;;;;12.48;1.88;;;;;;;4.51;60.80;100607.13;5059613;28;20546;-65
2022/02/19 04:50:21;;;;;;;12.85;2.15;;;;;;;4.43;61.34;100597.22;5092050;28;20071;-65
2022/02/19 04:52:51;;;;;;;8.25;2.35;;;;;;;4.43;61.26;100600.66;5075738;28;20044;-65
2022/02/19 04:55:18;;;;;;;8.77;1.60;;;;;;;4.42;60.89;100604.25;5091804;28;20115;-65
2022/02/19 04:57:45;;;;;;;8.32;1.38;;;;;;;4.39;61.09;100603.66;5075239;28;20047;-65
2022/02/19 05:00:17;;;;;;;14.38;1.92;;;;;;;4.32;61.23;100621.66;5059515;28;20040;-65
2022/02/19 05:03:04;;;;;;;12.80;1.70;;;;;;;4.37;61.91;100637.09;5081646;28;20135;-65
2022/02/19 05:05:35;;;;;;;8.75;2.20;;;;;;;4.33;61.82;100636.47;5077771;28;20139;-64
2022/02/19 05:08:03;;;;;;;17.15;2.88;;;;;;;4.36;61.43;100653.78;5044177;28;20495;-65
2022/02/19 05:10:30;;;;;;;12.27;1.75;;;;;;;4.38;62.35;100642.22;5091793;28;20048;-65
2022/02/19 05:12:59;;;;;;;11.18;2.42;;;;;;;4.37;62.11;100658.09;5077640;28;20051;-64
2022/02/19 05:15:26;;;;;;;13.80;2.08;;;;;;;4.46;61.85;100651.28;5096492;28;20093;-64
2022/02/19 05:18:08;;;;;;;8.40;1.73;;;;;;;4.51;61.56;100662.28;5080598;28;20052;-65
2022/02/19 05:20:38;;;;;;;12.63;1.83;;;;;;;4.45;61.55;100676.72;5096081;28;20048;-65
2022/02/19 05:23:06;;;;;;;15.68;2.15;;;;;;;4.42;61.62;100672.56;5078582;28;20048;-65
2022/02/19 05:25:34;;;;;;;14.88;2.45;;;;;;;4.43;60.99;100674.22;5078780;28;20040;-65
2022/02/19 05:28:01;;;;;;;16.95;2.60;;;;;;;4.29;61.28;100678.84;5096399;28;20400;-65
2022/02/19 05:30:27;;;;;;;11.20;1.90;;;;;;;4.27;62.00;100676.31;5078071;28;20050;-65
2022/02/19 05:33:14;;;;;;;8.02;1.85;;;;;;;4.22;61.48;100675.81;5095240;28;20040;-65
2022/02/19 05:35:44;;;;;;;9.93;1.70;;;;;;;4.24;61.65;100681.81;5094502;28;20044;-65
2022/02/19 05:38:11;;;;;;;12.23;1.67;;;;;;;4.19;61.56;100678.69;5095310;28;20050;-65
2022/02/19 05:40:38;;;;;;;7.57;1.50;;;;;;;4.19;61.25;100681.31;5071976;28;20045;-65
2022/02/19 05:43:08;;;;;;;10.55;1.92;;;;;;;4.08;61.82;100678.66;5026088;28;20447;-65
2022/02/19 05:45:35;;;;;;;18.40;2.42;;;;;;;4.02;61.80;100685.16;5070338;28;20458;-65
2022/02/19 05:48:02;;;;;;;14.95;1.90;;;;;;;4.11;61.59;100686.28;5096410;28;20054;-65
2022/02/19 05:50:50;;;;;;;12.48;1.70;;;;;;;4.07;61.62;100701.44;5095393;28;20067;-66
2022/02/19 05:53:24;;;;;;;15.10;1.95;;;;;;;4.06;61.78;100720.78;5078172;28;20051;-66
2022/02/19 05:55:53;;;;;;;13.07;1.92;;;;;;;4.05;62.03;100708.59;5094465;28;20066;-64
2022/02/19 05:58:21;;;;;;;10.43;1.92;;;;;;;4.12;62.25;100703.72;5094642;28;20038;-65
2022/02/19 06:01:01;;;;;;;16.58;2.65;;;;;;;4.08;61.49;100712.78;5094717;28;20047;-65
2022/02/19 06:03:28;;;;;;;15.82;2.10;;;;;;;4.02;61.93;100703.53;5090381;28;20036;-65
2022/02/19 06:05:55;;;;;;;14.30;2.15;;;;;;;3.98;61.96;100704.72;5075252;28;20064;-65
2022/02/19 06:08:23;;;;;;;9.82;1.73;;;;;;;4.07;61.90;100713.72;5094583;28;20070;-65
2022/02/19 06:10:49;;;;;;;14.63;2.45;;;;;;;3.88;62.31;100717.69;5073794;28;20045;-65
2022/02/19 06:13:19;;;;;;;10.48;2.13;;;;;;;3.95;62.36;100716.31;5060551;28;20437;-65
2022/02/19 06:15:48;;;;;;;7.90;1.92;;;;;;;3.85;62.26;100726.63;5057526;28;20066;-65
2022/02/19 06:18:21;;;;;;;14.50;2.47;;;;;;;3.82;62.69;100729.47;5086826;28;20040;-65
2022/02/19 06:20:47;;;;;;;11.07;1.50;;;;;;;3.77;62.72;100736.84;5094915;28;20166;-65
2022/02/19 06:23:29;;;;;;;15.20;2.45;;;;;;;3.84;62.60;100748.56;5078901;28;20067;-65
2022/02/19 06:25:56;;;;;;;13.10;2.13;;;;;;;3.84;62.03;100764.31;5094272;28;20071;-65
2022/02/19 06:28:23;;;;;;;14.93;2.20;;;;;;;3.81;62.57;100745.34;5095154;28;20120;-65
2022/02/19 06:30:50;;;;;;;9.75;1.60;;;;;;;3.80;62.61;100743.66;5094830;28;20071;-65
2022/02/19 06:33:18;;;;;;;6.57;1.90;;;;;;;3.83;62.18;100749.50;5095072;28;20055;-66
2022/02/19 06:35:45;;;;;;;12.38;2.17;;;;;;;3.85;62.20;100738.91;5045841;28;20064;-66
2022/02/19 06:38:18;;;;;;;13.02;1.75;;;;;;;3.83;62.07;100757.38;5074883;28;20079;-65
2022/02/19 06:40:44;;;;;;;10.20;2.00;;;;;;;3.89;62.21;100774.47;5074731;28;20048;-65
2022/02/19 06:43:11;;;;;;;20.48;2.10;;;;;;;3.81;62.66;100776.81;5037219;28;20037;-65
2022/02/19 06:45:41;;;;;;;12.32;2.00;;;;;;;3.83;62.38;100778.38;5071384;28;20135;-65
2022/02/19 06:48:08;;;;;;;15.52;2.08;;;;;;;3.87;62.80;100796.53;5074699;28;20542;-66
2022/02/19 06:50:36;;;;;;;13.52;2.70;;;;;;;3.74;63.00;100791.31;5056980;28;20143;-66
2022/02/19 06:53:06;;;;;;;16.08;2.47;;;;;;;3.81;62.68;100787.31;5073967;28;20119;-65
2022/02/19 06:55:34;;;;;;;12.40;1.92;;;;;;;3.80;63.31;100796.13;5074698;28;20416;-65
2022/02/19 06:58:04;;;;;;;18.20;1.95;;;;;;;3.76;63.00;100802.53;5057307;28;20127;-66
2022/02/19 07:00:36;;;;;;;;;;;;;;;3.80;62.74;100802.22;5074939;28;20091;-65
2022/02/19 07:03:05;;;;;;;11.30;2.63;;;;;;;3.77;63.29;100806.88;5057012;28;19924;-66
2022/02/19 07:05:38;;;;;;;10.85;1.90;;;;;;;3.78;63.25;100808.53;5049673;28;20049;-65
2022/02/19 07:08:11;;;;;;;17.63;1.85;;;;;;;3.79;62.92;100815.47;5064907;28;20085;-65
2022/02/19 07:10:38;;;;;;;12.23;1.80;;;;;;;3.77;62.92;100814.72;5036551;28;20065;-66
2022/02/19 07:13:05;;;;;;;11.30;2.15;;;;;;;3.70;63.38;100822.19;5070591;28;20063;-65
2022/02/19 07:15:32;;;;;;;12.45;1.85;;;;;;;3.79;63.28;100815.47;5059363;28;20422;-65
2022/02/19 07:18:08;;;;;;;19.80;2.40;;;;;;;3.82;63.61;100818.72;5092037;28;20048;-66
2022/02/19 07:20:52;;;;;;;17.20;2.50;;;;;;;3.84;63.42;100824.69;5093975;28;20496;-66
2022/02/19 07:23:21;;;;;;;13.30;2.10;;;;;;;3.80;63.86;100827.63;5094113;28;20036;-65
2022/02/19 07:25:48;;;;;;;9.40;1.80;;;;;;;3.83;63.69;100833.50;5043423;28;20063;-65
2022/02/19 07:28:14;;;;;;;20.92;2.55;;;;;;;3.91;64.28;100859.22;5059282;28;20044;-65
2022/02/19 07:30:43;;;;;;;11.68;1.98;;;;;;;3.89;63.86;100865.50;5073762;28;20452;-65
2022/02/19 07:33:11;;;;;;;23.85;2.55;;;;;;;3.97;64.07;100865.81;5092924;28;20404;-65
2022/02/19 07:35:45;;;;;;;11.20;2.05;;;;;;;3.91;64.30;100874.09;5091606;28;20127;-65
2022/02/19 07:38:12;;;;;;;12.02;2.47;;;;;;;3.80;65.14;100886.22;5093591;28;20067;-65
2022/02/19 07:40:39;;;;;;;11.93;2.70;;;;;;;3.89;64.74;100889.13;5075682;28;20040;-65
2022/02/19 07:43:07;;;;;;;15.27;2.70;;;;;;;3.91;64.33;100909.09;5076261;28;20508;-65
2022/02/19 07:45:54;;;;;;;18.20;2.50;;;;;;;3.91;64.82;100897.72;5092537;28;20511;-65
2022/02/19 07:48:40;;;;;;;14.05;2.65;;;;;;;3.97;64.64;100897.31;5078702;28;20119;-66
2022/02/19 08:00:04;;;;;;;9.35;1.98;;;;;;;4.24;64.24;100910.28;5093443;28;20039;-65
2022/02/19 08:02:43;;;;;;;12.48;2.17;;;;;;;4.30;63.70;100920.34;5093520;28;20089;-65
2022/02/19 08:05:10;;;;;;;19.23;2.45;;;;;;;4.49;63.58;100927.75;5093481;28;20123;-64
2022/02/19 08:07:43;;;;;;;19.10;2.92;;;;;;;4.49;63.43;100934.78;5093458;28;20036;-65
2022/02/19 08:10:10;;;;;;;21.70;3.13;;;;;;;4.50;63.29;100934.69;5092262;28;20054;-65
2022/02/19 08:12:36;;;;;;;17.02;3.13;;;;;;;4.59;63.01;100951.59;5093385;28;20036;-65
2022/02/19 08:15:03;;;;;;;13.32;1.95;;;;;;;4.57;62.62;100964.81;5075755;28;20085;-65
2022/02/19 08:17:31;;;;;;;14.68;3.45;;;;;;;4.51;62.60;100960.03;5093149;28;20507;-66
2022/02/19 08:19:58;;;;;;;13.90;2.10;;;;;;;4.64;62.94;100967.00;5075897;28;20048;-66
2022/02/19 08:22:25;;;;;;;12.43;2.08;;;;;;;4.62;62.64;100975.03;5075157;28;20036;-66
2022/02/19 08:24:52;;;;;;;13.30;2.25;;;;;;;4.61;62.79;100973.31;5093094;28;20028;-66
2022/02/19 08:27:19;;;;;;;13.43;2.10;;;;;;;4.75;62.72;100972.34;5092053;28;20040;-66
2022/02/19 08:29:45;;;;;;;11.90;2.28;;;;;;;4.71;61.70;100986.63;5075065;28;20051;-66
2022/02/19 08:32:12;;;;;;;13.07;2.08;;;;;;;4.80;62.32;100968.44;5065121;28;20048;-66
2022/02/19 08:34:39;;;;;;;20.42;3.00;;;;;;;4.98;61.91;100963.63;5079728;28;20377;-66
2022/02/19 08:37:06;;;;;;;19.08;2.50;;;;;;;5.11;60.41;100986.38;5055095;28;20049;-65
2022/02/19 08:39:33;;;;;;;11.35;2.45;;;;;;;4.97;60.96;100977.72;5085280;28;20119;-65
2022/02/19 08:41:59;;;;;;;12.68;2.33;;;;;;;5.04;60.59;100979.88;5075078;28;20093;-66
2022/02/19 08:44:27;;;;;;;13.65;2.13;;;;;;;5.21;60.28;100986.56;5093287;28;20487;-65
2022/02/19 08:46:53;;;;;;;31.27;3.15;;;;;;;5.29;59.83;100986.81;5095371;28;20043;-65
2022/02/19 08:49:20;;;;;;;14.10;2.60;;;;;;;5.22;59.96;101004.00;5097110;28;20044;-66
2022/02/19 08:51:46;;;;;;;20.90;3.17;;;;;;;5.26;60.33;101002.84;5079080;28;20090;-65
2022/02/19 08:54:13;;;;;;;13.57;2.65;;;;;;;5.47;59.84;101000.41;5079047;28;20403;-65
2022/02/19 08:56:41;;;;;;;18.63;2.85;;;;;;;5.48;59.25;101005.56;5096005;28;20043;-66
2022/02/19 08:59:08;;;;;;;13.60;2.00;;;;;;;5.43;59.89;100996.31;5079442;28;20048;-66
2022/02/19 09:01:35;;;;;;;15.23;2.10;;;;;;;5.56;60.52;100994.44;5097047;28;20040;-66
2022/02/19 09:04:03;;;;;;;29.05;2.75;;;;;;;5.44;59.95;101008.50;5096664;28;20512;-65
2022/02/19 09:06:30;;;;;;;16.67;2.63;;;;;;;5.47;60.29;101017.00;5078432;28;20047;-66
2022/02/19 09:08:57;;;;;;;16.90;2.25;;;;;;;5.46;60.80;101006.63;5078619;28;20055;-66
2022/02/19 09:11:23;;;;;;;18.95;2.92;;;;;;;5.47;59.58;101005.66;5095801;28;20040;-65
2022/02/19 09:13:54;;;;;;;29.48;2.75;;;;;;;5.55;59.14;101012.03;5078534;28;20040;-66
2022/02/19 09:16:21;;;;;;;17.33;2.20;;;;;;;5.50;59.55;101022.06;5096554;28;20052;-66
2022/02/19 09:18:48;;;;;;;17.75;2.10;;;;;;;5.66;59.54;101010.41;5095340;28;20147;-65
2022/02/19 09:21:15;;;;;;;17.63;1.90;;;;;;;5.75;59.00;101020.22;5078422;28;20036;-65
2022/02/19 09:23:42;;;;;;;17.38;2.47;;;;;;;5.66;58.73;101013.88;5097027;28;20044;-66
2022/02/19 09:26:09;;;;;;;17.25;2.35;;;;;;;5.81;59.04;101021.56;5078752;28;20051;-66
2022/02/19 09:28:36;;;;;;;19.02;2.38;;;;;;;5.86;58.90;101022.06;5094913;28;20454;-66
2022/02/19 09:31:03;;;;;;;13.38;2.15;;;;;;;6.05;59.23;101016.25;5041489;28;20393;-66
2022/02/19 09:33:30;;;;;;;19.70;2.47;;;;;;;5.89;58.62;101020.00;5060926;28;20044;-65
2022/02/19 09:35:57;;;;;;;13.07;2.40;;;;;;;5.94;59.15;101017.84;5077680;28;20488;-65
2022/02/19 09:38:24;;;;;;;23.13;2.40;;;;;;;6.14;58.10;101023.44;5095456;28;20400;-65
2022/02/19 09:40:51;;;;;;;14.00;2.90;;;;;;;6.14;57.57;101032.16;5094743;28;20044;-65
2022/02/19 09:43:19;;;;;;;13.82;2.40;;;;;;;6.12;58.54;101027.97;5096088;28;20040;-65
2022/02/19 09:45:46;;;;;;;15.38;1.88;;;;;;;5.91;58.87;101035.69;5095904;28;20043;-65
2022/02/19 09:48:16;;;;;;;22.15;2.88;;;;;;;5.95;58.95;101032.75;5062008;28;20055;-65
2022/02/19 09:50:45;;;;;;;15.68;2.40;;;;;;;6.04;58.63;101027.72;5078026;28;20130;-65
2022/02/19 09:53:12;;;;;;;18.42;2.42;;;;;;;6.23;57.65;101032.44;5094715;28;20059;-65
2022/02/19 09:55:39;;;;;;;16.02;2.30;;;;;;;6.36;57.79;101034.94;5077529;28;20377;-65
2022/02/19 09:58:06;;;;;;;22.38;2.70;;;;;;;6.61;57.59;101021.50;5093936;28;20060;-65
2022/02/19 10:03:23;;;;;;;17.77;2.70;;;;;;;6.54;56.75;101029.06;5090708;27;20380;-65
2022/02/19 10:05:50;;;;;;;17.55;1.90;;;;;;;6.65;57.39;101035.28;5100109;28;20072;-65
2022/02/19 10:08:18;;;;;;;16.75;2.72;;;;;;;6.71;56.79;101040.06;5088930;28;20073;-64
2022/02/19 10:10:49;;;;;;;11.65;1.90;;;;;;;6.48;57.04;101039.25;5090518;28;20127;-64
2022/02/19 10:13:34;;;;;;;18.17;2.28;;;;;;;6.50;57.40;101038.16;5072819;28;20040;-64
2022/02/19 10:16:03;;;;;;;15.27;2.33;;;;;;;6.63;56.47;101050.41;5090448;28;20055;-65
2022/02/19 10:18:42;;;;;;;20.25;2.80;;;;;;;6.48;57.12;101045.38;5086254;28;20140;-64
2022/02/19 10:21:19;;;;;;;19.70;2.17;;;;;;;6.62;57.13;101031.13;5081605;28;20044;-65
2022/02/19 10:23:50;;;;;;;14.95;2.65;;;;;;;6.94;57.01;101037.41;5084926;28;20071;-65
2022/02/19 10:26:20;;;;;;;11.30;2.22;;;;;;;7.02;54.81;101025.28;5088427;28;20518;-65
2022/02/19 10:29:05;;;;;;;11.02;2.10;;;;;;;6.91;54.83;101041.97;5088206;28;20048;-65
2022/02/19 10:31:33;;;;;;;10.40;1.83;;;;;;;6.76;55.31;101050.25;5073436;28;20112;-65
2022/02/19 10:34:13;;;;;;;20.90;2.60;;;;;;;6.79;56.09;101048.22;5070697;28;20055;-65
2022/02/19 10:36:45;;;;;;;18.95;2.67;;;;;;;7.12;55.54;101041.19;5084651;28;20044;-64
2022/02/19 10:39:12;;;;;;;61.95;4.53;;;;;;;7.29;55.28;101043.31;5089397;28;20519;-64
2022/02/19 10:41:41;;;;;;;15.48;3.17;;;;;;;7.35;54.26;101044.63;5083837;28;20037;-65
2022/02/19 10:44:29;;;;;;;9.43;2.03;;;;;;;7.17;53.48;101068.06;5102078;28;20041;-67
2022/02/19 10:47:17;;;;;;;11.50;1.90;;;;;;;7.13;52.86;101057.84;5066795;28;20044;-69
2022/02/19 10:52:53;;;;;;;14.10;2.40;;;;;;;7.78;51.76;101069.25;5090499;27;20388;-67
2022/02/19 10:55:23;;;;;;;14.23;2.63;;;;;;;7.94;51.32;101066.19;5056023;28;20062;-67
2022/02/19 10:57:52;;;;;;;20.90;2.65;;;;;;;7.68;51.64;101061.28;5056539;28;20044;-68
2022/02/19 11:00:21;;;;;;;13.07;1.88;;;;;;;7.78;51.15;101064.81;5072349;28;20048;-68
2022/02/19 11:02:49;;;;;;;11.43;2.00;;;;;;;7.74;52.04;101060.75;5072748;28;20044;-69
2022/02/19 11:05:19;;;;;;;12.63;2.17;;;;;;;7.57;51.68;101059.53;5089176;28;20045;-69
2022/02/19 11:07:48;;;;;;;12.35;2.05;;;;;;;7.61;51.05;101053.00;5083199;28;20106;-72
2022/02/19 11:10:17;;;;;;;16.83;2.35;;;;;;;7.99;50.42;101043.69;5074754;28;20053;-67
2022/02/19 11:12:45;;;;;;;8.60;2.10;;;;;;;8.06;50.74;101050.13;5077189;28;20040;-70
2022/02/19 11:15:13;;;;;;;16.92;2.65;;;;;;;8.55;50.16;101052.19;5086319;28;20052;-68
2022/02/19 11:17:40;;;;;;;14.40;2.45;;;;;;;9.43;48.53;101055.06;5083057;28;20040;-68
2022/02/19 11:20:10;;;;;;;13.93;2.25;;;;;;;11.33;43.41;101047.69;5090004;28;20048;-68
2022/02/19 11:22:39;;;;;;;12.95;2.58;;;;;;;11.89;40.81;101047.47;5053564;28;20139;-69
2022/02/19 11:25:09;;;;;;;15.77;2.55;;;;;;;13.04;38.52;101074.69;5064977;28;20048;-68
2022/02/19 11:27:42;;;;;;;11.00;2.40;;;;;;;12.24;39.13;101061.69;5074731;28;20044;-66
2022/02/19 11:30:12;;;;;;;12.25;2.22;;;;;;;12.77;38.82;101073.97;5054456;28;20404;-64
2022/02/19 11:32:42;;;;;;;13.18;2.30;;;;;;;13.18;37.29;101060.75;5083513;28;20098;-67
2022/02/19 11:35:09;;;;;;;10.48;2.55;;;;;;;15.79;33.63;101054.00;5085969;28;20047;-68
2022/02/19 11:37:39;;;;;;;13.07;2.25;;;;;;;14.24;33.83;101056.44;5080440;28;20436;-68
2022/02/19 11:40:13;;;;;;;18.08;2.42;;;;;;;13.01;35.08;101067.88;5078225;28;20124;-68
2022/02/19 11:42:46;;;;;;;17.45;2.47;;;;;;;13.67;33.83;101060.00;5072658;28;20194;-68
2022/02/19 11:50:42;;;;;;;11.77;2.15;;;;;;;13.85;34.98;101067.84;5069397;27;20406;-69
2022/02/19 11:55:48;;;;;;;10.60;2.72;;;;;;;12.77;35.48;101086.41;5058020;28;20882;-68
2022/02/19 11:58:22;;;;;;;15.93;2.03;;;;;;;13.63;33.43;101078.16;5035582;28;20048;-69
2022/02/19 12:01:12;;;;;;;12.63;2.30;;;;;;;12.82;35.01;101074.31;5042684;28;20053;-70